Time;durP1;ratioP1;P1;durP2;ratioP2;P2;SDS_P1;SDS_P2;PMS_P1;PMS_P2;Temp;Humidity;BMP_temperature;BMP_pressure;BME280_temperature;BME280_humidity;BME280_pressure;Samples;Min_cycle;Max_cycle;Signal;HPM_P1;HPM_P2
2023/06/07 00:01:08;;;;;;;7.00;4.45;;;17.70;99.90;;;17.62;100.00;101118.56;4997418;28;20038;-80
2023/06/07 00:03:36;;;;;;;9.73;4.85;;;17.70;99.90;;;17.56;100.00;101120.41;4993092;28;20049;-81
2023/06/07 00:06:03;;;;;;;8.15;4.60;;;17.50;99.90;;;17.48;100.00;101115.31;5014173;28;20038;-80
2023/06/07 00:08:30;;;;;;;7.55;5.07;;;17.50;99.90;;;17.44;100.00;101125.19;4998683;28;20034;-80
2023/06/07 00:10:57;;;;;;;12.40;5.22;;;17.40;99.90;;;17.34;100.00;101121.19;4994630;28;20089;-80
2023/06/07 00:13:23;;;;;;;8.55;5.38;;;17.30;99.90;;;17.35;100.00;101122.84;4996306;28;20521;-79
2023/06/07 00:15:49;;;;;;;8.95;5.70;;;17.40;99.90;;;17.36;100.00;101118.16;4995813;28;20034;-80
2023/06/07 00:18:16;;;;;;;9.63;4.93;;;17.40;99.90;;;17.36;100.00;101124.53;4991376;28;20110;-79
2023/06/07 00:20:45;;;;;;;9.67;5.97;;;17.40;99.90;;;17.34;100.00;101126.69;4993075;28;20057;-80
2023/06/07 00:23:15;;;;;;;9.18;5.50;;;17.40;99.90;;;17.30;100.00;101120.00;4990666;28;20042;-80
2023/06/07 00:25:42;;;;;;;8.75;5.25;;;17.30;99.90;;;17.35;100.00;101128.38;4997085;28;20053;-80
2023/06/07 00:28:07;;;;;;;8.25;5.07;;;17.40;99.90;;;17.35;100.00;101122.00;5010092;28;20030;-79
2023/06/07 00:30:33;;;;;;;10.23;5.25;;;17.50;99.90;;;17.38;100.00;101124.28;4998814;28;20034;-80
2023/06/07 00:32:59;;;;;;;9.18;5.13;;;17.50;99.90;;;17.45;100.00;101124.94;5005467;28;20025;-80
2023/06/07 00:35:24;;;;;;;12.93;5.45;;;17.60;99.90;;;17.39;100.00;101121.25;5008946;28;20062;-79
2023/06/07 00:37:50;;;;;;;9.48;4.80;;;17.60;99.90;;;17.39;100.00;101131.47;5015607;28;20034;-79
2023/06/07 00:40:16;;;;;;;8.07;5.55;;;17.60;99.90;;;17.38;100.00;101127.88;5007472;28;20034;-79
2023/06/07 00:42:42;;;;;;;8.60;5.38;;;17.60;99.90;;;17.38;100.00;101122.34;4996922;28;20034;-79
2023/06/07 00:45:09;;;;;;;9.50;5.43;;;17.60;99.90;;;17.38;100.00;101129.81;5001809;28;20504;-79
2023/06/07 00:47:39;;;;;;;8.32;5.28;;;17.60;99.90;;;17.39;100.00;101131.47;5002247;28;20541;-80
2023/06/07 00:50:06;;;;;;;10.10;5.30;;;17.60;99.90;;;17.36;100.00;101127.28;5006337;28;20049;-79
2023/06/07 00:52:35;;;;;;;10.10;5.30;;;17.60;99.90;;;17.35;100.00;101133.03;5000059;28;20434;-79
2023/06/07 00:55:02;;;;;;;9.82;5.70;;;17.60;99.90;;;17.33;100.00;101130.53;5003194;28;20541;-80
2023/06/07 00:57:29;;;;;;;8.90;5.20;;;17.50;99.90;;;17.32;100.00;101130.78;4995830;28;20482;-79
2023/06/07 00:59:55;;;;;;;10.05;5.70;;;17.50;99.90;;;17.28;100.00;101133.22;4995357;28;20498;-80
2023/06/07 01:02:21;;;;;;;9.48;5.88;;;17.40;99.90;;;17.28;100.00;101138.72;5000636;28;20403;-80
2023/06/07 01:04:49;;;;;;;10.57;5.50;;;17.40;99.90;;;17.18;100.00;101139.41;5019908;28;20120;-80
2023/06/07 01:07:17;;;;;;;9.57;5.35;;;17.30;99.90;;;17.12;100.00;101132.13;5011930;28;20038;-81
2023/06/07 01:09:43;;;;;;;11.55;5.55;;;17.30;99.90;;;17.09;100.00;101138.97;5006007;28;20045;-80
2023/06/07 01:12:16;;;;;;;7.70;5.40;;;17.20;99.90;;;17.00;100.00;101134.09;5015612;28;20041;-79
2023/06/07 01:14:48;;;;;;;8.88;5.70;;;17.20;99.90;;;17.10;100.00;101134.28;4997469;28;20034;-81
2023/06/07 01:17:16;;;;;;;11.23;5.57;;;17.20;99.90;;;17.04;100.00;101132.50;5003722;28;20035;-80
2023/06/07 01:19:43;;;;;;;10.85;5.70;;;17.20;99.90;;;17.14;100.00;101131.84;4999613;28;20035;-81
2023/06/07 01:22:10;;;;;;;10.57;5.35;;;17.20;99.90;;;17.21;100.00;101144.41;5011133;28;20394;-80
2023/06/07 01:24:39;;;;;;;9.23;5.70;;;17.20;99.90;;;17.21;100.00;101146.31;5010667;28;20396;-81
2023/06/07 01:27:07;;;;;;;9.98;5.18;;;17.30;99.90;;;17.22;100.00;101145.22;5010347;28;20464;-80
2023/06/07 01:29:34;;;;;;;10.80;5.70;;;17.30;99.90;;;17.24;100.00;101138.38;4995432;28;20034;-80
2023/06/07 01:32:06;;;;;;;12.70;5.75;;;17.30;99.90;;;17.22;100.00;101129.53;5022613;28;20046;-79
2023/06/07 01:34:34;;;;;;;12.20;5.68;;;17.40;99.90;;;17.19;100.00;101129.19;5004391;28;20033;-80
2023/06/07 01:37:01;;;;;;;13.45;5.63;;;17.40;99.90;;;17.24;100.00;101130.13;4996565;28;20042;-80
2023/06/07 01:39:29;;;;;;;9.30;5.40;;;17.30;99.90;;;17.25;100.00;101139.25;5011457;28;20105;-80
2023/06/07 01:41:58;;;;;;;10.57;5.50;;;17.30;99.90;;;17.16;100.00;101137.97;5012711;28;20069;-80
2023/06/07 01:44:25;;;;;;;9.40;5.25;;;17.20;99.90;;;17.04;100.00;101138.03;5003003;28;20039;-80
2023/06/07 01:46:51;;;;;;;11.70;6.00;;;17.10;99.90;;;16.97;100.00;101136.25;5003077;28;20030;-80
2023/06/07 01:49:19;;;;;;;10.35;5.55;;;17.00;99.90;;;16.88;100.00;101142.41;5004641;28;20049;-81
2023/06/07 01:51:46;;;;;;;11.60;5.78;;;16.90;99.90;;;16.78;100.00;101138.38;5011927;28;20038;-80
2023/06/07 01:54:14;;;;;;;8.75;5.93;;;16.80;99.90;;;16.63;100.00;101144.44;5022299;28;20095;-80
2023/06/07 01:57:17;;;;;;;11.30;6.53;;;16.70;99.90;;;16.59;100.00;101132.25;5013431;28;20046;-80
2023/06/07 02:00:21;;;;;;;13.90;5.90;;;16.70;99.90;;;16.59;100.00;101142.41;5009320;28;20053;-80
2023/06/07 02:02:57;;;;;;;11.00;5.75;;;16.60;99.90;;;16.59;100.00;101134.16;5003326;28;20046;-80
2023/06/07 02:05:40;;;;;;;9.95;5.90;;;16.70;99.90;;;16.58;100.00;101124.22;5006672;28;20050;-80
2023/06/07 02:08:19;;;;;;;12.07;6.57;;;16.70;99.90;;;16.62;100.00;101141.91;5010054;28;20474;-79
2023/06/07 02:10:47;;;;;;;9.13;5.45;;;16.80;99.90;;;16.64;100.00;101131.47;5004768;28;20486;-82
2023/06/07 02:13:15;;;;;;;11.45;5.80;;;16.90;99.90;;;16.66;100.00;101135.69;4998559;28;20038;-80
2023/06/07 02:15:45;;;;;;;10.48;5.82;;;16.90;99.90;;;16.64;100.00;101135.09;4998440;28;20038;-79
2023/06/07 02:18:12;;;;;;;10.13;5.35;;;16.90;99.90;;;16.64;100.00;101125.97;5006711;28;20116;-79
2023/06/07 02:20:38;;;;;;;9.85;5.20;;;16.90;99.90;;;16.65;100.00;101127.66;5007686;28;20034;-80
2023/06/07 02:23:06;;;;;;;10.98;5.65;;;16.90;99.90;;;16.66;100.00;101127.41;5000181;28;20057;-80
2023/06/07 02:25:32;;;;;;;9.35;5.05;;;16.90;99.90;;;16.65;100.00;101135.91;5009644;28;20045;-79
2023/06/07 02:27:58;;;;;;;11.63;6.00;;;16.90;99.90;;;16.58;100.00;101133.31;5006640;28;20038;-79
2023/06/07 02:30:25;;;;;;;;;;;16.80;99.90;;;16.61;100.00;101131.97;5003821;28;20095;-79
2023/06/07 02:32:54;;;;;;;12.13;5.88;;;16.80;99.90;;;16.47;100.00;101126.78;4996560;28;20008;-79
2023/06/07 02:35:20;;;;;;;;;;;16.80;99.90;;;16.46;100.00;101138.00;4997456;28;20049;-79
2023/06/07 02:37:46;;;;;;;10.40;5.60;;;16.80;99.90;;;16.46;100.00;101138.88;5002775;28;19917;-77
2023/06/07 02:40:14;;;;;;;9.65;5.80;;;16.80;99.90;;;16.44;100.00;101141.00;5004544;28;20081;-78
2023/06/07 02:42:45;;;;;;;11.10;5.90;;;16.70;99.90;;;16.37;100.00;101135.66;5020739;28;20030;-80
2023/06/07 02:45:12;;;;;;;11.75;5.50;;;16.70;99.90;;;16.34;100.00;101135.31;5008957;28;20053;-79
2023/06/07 02:47:37;;;;;;;12.40;5.93;;;16.60;99.90;;;16.26;100.00;101136.50;5002249;28;20038;-81
2023/06/07 02:50:05;;;;;;;10.93;6.07;;;16.60;99.90;;;16.20;100.00;101143.84;4996562;28;20339;-79
2023/06/07 02:52:31;;;;;;;10.52;5.40;;;16.60;99.90;;;16.16;100.00;101141.81;5008139;28;20034;-82
2023/06/07 02:54:56;;;;;;;12.02;6.00;;;16.50;99.90;;;16.07;100.00;101141.34;5007523;28;20486;-81
2023/06/07 02:57:22;;;;;;;10.75;5.57;;;16.40;99.90;;;16.06;100.00;101139.66;5002855;28;20030;-80
2023/06/07 02:59:48;;;;;;;13.43;5.85;;;16.40;99.90;;;16.06;100.00;101137.78;5001850;28;20042;-80
2023/06/07 03:02:20;;;;;;;10.88;5.93;;;16.40;99.90;;;16.03;100.00;101140.97;5013992;28;20050;-80
2023/06/07 03:04:50;;;;;;;10.57;6.18;;;16.40;99.90;;;15.99;100.00;101155.47;5001103;28;20025;-82
2023/06/07 03:07:20;;;;;;;14.90;5.70;;;16.40;99.90;;;16.00;100.00;101138.72;5006155;28;20026;-79
2023/06/07 03:09:47;;;;;;;9.57;5.65;;;16.30;99.90;;;15.99;100.00;101133.47;4995421;28;20026;-79
2023/06/07 03:12:14;;;;;;;12.15;5.65;;;16.30;99.90;;;15.96;100.00;101141.13;5015736;28;20031;-82
2023/06/07 03:14:45;;;;;;;10.57;5.95;;;16.30;99.90;;;15.94;100.00;101143.28;5008240;28;20141;-81
2023/06/07 03:17:14;;;;;;;;;;;16.30;99.90;;;15.85;100.00;101144.69;5009548;28;20026;-82
2023/06/07 03:19:42;;;;;;;9.90;5.50;;;16.30;99.90;;;15.80;100.00;101139.06;5007897;28;19928;-81
2023/06/07 03:22:08;;;;;;;10.27;6.00;;;16.20;99.90;;;15.82;100.00;101139.66;4998349;28;20502;-82
2023/06/07 03:24:38;;;;;;;15.65;6.50;;;16.20;99.90;;;15.74;100.00;101142.78;4997301;28;20478;-76
2023/06/07 03:27:10;;;;;;;12.52;5.78;;;16.20;99.90;;;15.79;100.00;101143.75;4991769;28;20095;-78
2023/06/07 03:29:39;;;;;;;10.80;5.18;;;16.20;99.90;;;15.86;100.00;101140.84;5023609;28;20092;-78
2023/06/07 03:32:05;;;;;;;12.10;6.10;;;16.20;99.90;;;15.66;100.00;101125.56;5003719;28;20042;-76
2023/06/07 03:34:34;;;;;;;13.25;6.03;;;16.10;99.90;;;15.74;100.00;101143.59;4998272;28;20038;-75
2023/06/07 03:37:02;;;;;;;;;;;16.10;99.90;;;15.63;100.00;101139.78;5004915;28;20038;-74
2023/06/07 03:39:31;;;;;;;14.32;5.70;;;16.10;99.90;;;15.59;100.00;101151.50;5007664;28;19918;-77
2023/06/07 03:41:57;;;;;;;12.38;5.75;;;16.00;99.90;;;15.60;100.00;101147.69;4994662;28;20030;-77
2023/06/07 03:44:25;;;;;;;;;;;16.00;99.90;;;15.50;100.00;101138.09;5006267;28;20052;-75
2023/06/07 03:46:51;;;;;;;14.82;6.40;;;16.00;99.90;;;15.60;100.00;101158.69;5013422;28;19922;-76
2023/06/07 03:49:17;;;;;;;13.80;6.50;;;16.00;99.90;;;15.56;100.00;101160.25;4997814;28;20043;-81
2023/06/07 03:51:43;;;;;;;9.63;5.93;;;16.00;99.90;;;15.35;100.00;101157.81;4994758;28;20081;-80
2023/06/07 03:54:10;;;;;;;11.93;6.05;;;15.90;99.90;;;15.43;100.00;101153.88;4997296;28;20066;-77
2023/06/07 03:56:36;;;;;;;18.92;6.30;;;15.80;99.90;;;15.32;100.00;101158.28;5011340;28;20037;-77
2023/06/07 03:59:04;;;;;;;11.60;6.38;;;15.80;99.90;;;15.26;100.00;101158.41;5000111;28;20030;-79
2023/06/07 04:01:32;;;;;;;13.07;6.40;;;15.70;99.90;;;15.21;100.00;101159.09;4994852;28;20034;-79
2023/06/07 04:03:59;;;;;;;15.85;6.28;;;15.70;99.90;;;15.13;100.00;101159.44;5018561;28;20045;-80
2023/06/07 04:06:25;;;;;;;13.20;6.10;;;15.60;99.90;;;15.10;100.00;101160.75;5005158;28;20038;-79
2023/06/07 04:08:52;;;;;;;12.23;6.10;;;15.60;99.90;;;15.12;100.00;101174.22;5004724;28;20034;-80
2023/06/07 04:11:23;;;;;;;13.88;6.35;;;15.50;99.90;;;15.13;100.00;101176.75;5011552;28;20085;-81
2023/06/07 04:13:48;;;;;;;16.23;6.25;;;15.50;99.90;;;14.96;100.00;101171.09;5007231;28;20126;-79
2023/06/07 04:16:16;;;;;;;13.93;7.27;;;15.40;99.90;;;14.94;100.00;101179.56;4996432;28;20116;-81
2023/06/07 04:18:44;;;;;;;12.68;6.13;;;15.40;99.90;;;15.02;100.00;101170.16;4999888;28;20409;-78
2023/06/07 04:21:13;;;;;;;12.85;6.18;;;15.40;99.90;;;15.01;100.00;101173.16;4999944;28;20473;-79
2023/06/07 04:23:41;;;;;;;15.88;6.75;;;15.40;99.90;;;15.01;100.00;101173.97;5012980;28;20029;-78
2023/06/07 04:26:08;;;;;;;13.23;6.82;;;15.40;99.90;;;15.02;100.00;101175.66;5008936;28;20077;-78
2023/06/07 04:28:34;;;;;;;15.35;6.45;;;15.40;99.90;;;14.96;100.00;101177.41;5015128;28;20122;-78
2023/06/07 04:31:02;;;;;;;;;;;15.40;99.90;;;15.08;100.00;101185.69;5005308;28;20037;-79
2023/06/07 04:33:28;;;;;;;12.00;6.43;;;15.40;99.90;;;15.10;100.00;101178.06;5007950;28;20334;-79
2023/06/07 04:35:58;;;;;;;14.43;6.23;;;15.40;99.90;;;15.13;100.00;101190.50;5011403;28;20034;-80
2023/06/07 04:38:25;;;;;;;24.92;7.35;;;15.40;99.90;;;15.01;100.00;101184.97;5020696;28;20433;-79
2023/06/07 04:41:00;;;;;;;22.05;7.85;;;15.40;99.90;;;14.90;100.00;101175.59;5010194;28;20126;-79
2023/06/07 04:43:37;;;;;;;19.27;7.15;;;15.40;99.90;;;14.92;100.00;101180.88;4998570;28;20447;-80
2023/06/07 04:46:04;;;;;;;22.52;8.27;;;15.30;99.90;;;14.96;100.00;101184.84;5015971;28;20110;-80
2023/06/07 04:48:32;;;;;;;20.77;7.55;;;15.30;99.90;;;14.95;100.00;101186.72;5000532;28;20061;-80
2023/06/07 04:51:05;;;;;;;23.33;7.60;;;15.30;99.90;;;15.08;100.00;101193.13;4978050;28;20069;-80
2023/06/07 04:53:36;;;;;;;19.55;7.97;;;15.30;99.90;;;14.99;100.00;101198.09;4994727;28;20074;-79
2023/06/07 04:56:04;;;;;;;21.67;7.90;;;15.30;99.90;;;15.01;100.00;101195.94;5028068;28;20104;-79
2023/06/07 04:58:31;;;;;;;16.02;7.65;;;15.30;99.90;;;14.98;100.00;101199.16;4992823;28;20337;-78
2023/06/07 05:00:58;;;;;;;20.02;8.07;;;15.30;99.90;;;14.85;100.00;101196.59;4993496;28;20026;-78
2023/06/07 05:03:24;;;;;;;17.58;7.10;;;15.20;99.90;;;14.91;100.00;101190.19;4993121;28;20065;-78
2023/06/07 05:05:53;;;;;;;16.80;7.03;;;15.20;99.90;;;14.86;100.00;101203.78;5015374;28;20030;-78
2023/06/07 05:08:21;;;;;;;19.10;6.90;;;15.20;99.90;;;14.86;100.00;101203.78;5002221;28;20042;-78
2023/06/07 05:10:47;;;;;;;25.05;7.60;;;15.10;99.90;;;14.95;100.00;101205.97;4999033;28;20057;-78
2023/06/07 05:13:14;;;;;;;18.20;7.20;;;15.20;99.90;;;15.03;100.00;101204.81;5007459;28;20038;-77
2023/06/07 05:15:39;;;;;;;20.25;8.52;;;15.20;99.90;;;15.01;100.00;101201.44;5005473;28;20120;-78
2023/06/07 05:18:07;;;;;;;22.73;7.70;;;15.20;99.90;;;14.95;100.00;101205.13;4987657;28;20029;-80
2023/06/07 05:20:33;;;;;;;18.38;7.35;;;15.20;99.90;;;14.89;100.00;101212.38;4999910;28;20456;-78
2023/06/07 05:23:02;;;;;;;17.00;7.38;;;15.20;99.90;;;14.85;100.00;101202.09;4993568;28;20060;-79
2023/06/07 05:25:28;;;;;;;14.05;7.53;;;15.10;99.90;;;14.71;100.00;101213.25;4997438;28;20124;-78
2023/06/07 05:27:54;;;;;;;17.50;7.07;;;15.00;99.90;;;14.85;100.00;101213.94;4997853;28;20040;-79
2023/06/07 05:30:20;;;;;;;18.83;7.75;;;15.00;99.90;;;14.87;100.00;101216.44;4999235;28;20517;-78
2023/06/07 05:32:48;;;;;;;17.60;7.38;;;15.10;99.90;;;14.78;100.00;101202.19;4995837;28;20035;-79
2023/06/07 05:35:14;;;;;;;19.63;7.18;;;15.10;99.90;;;14.90;100.00;101210.50;4996468;28;20053;-78
2023/06/07 05:37:42;;;;;;;;;;;15.10;99.90;;;15.05;100.00;101208.16;4997257;28;20037;-78
2023/06/07 05:40:10;;;;;;;17.35;7.85;;;15.20;99.90;;;15.03;100.00;101198.47;5009109;28;19918;-78
2023/06/07 05:42:38;;;;;;;14.10;7.13;;;15.30;99.90;;;14.96;100.00;101196.66;4993235;28;20045;-79
2023/06/07 05:45:07;;;;;;;15.65;7.40;;;15.30;99.90;;;14.88;100.00;101196.97;4993227;28;20057;-80
2023/06/07 05:47:33;;;;;;;16.10;7.35;;;15.30;99.90;;;15.20;100.00;101206.91;4994261;28;20038;-78
2023/06/07 05:49:59;;;;;;;17.13;7.28;;;15.40;99.90;;;15.35;100.00;101200.97;4994380;28;20439;-78
2023/06/07 05:52:25;;;;;;;15.52;7.40;;;15.60;99.90;;;15.43;100.00;101206.09;4994192;28;20406;-79
2023/06/07 05:54:54;;;;;;;17.48;7.43;;;15.70;99.90;;;15.41;100.00;101205.50;4992593;28;20100;-78
2023/06/07 05:57:20;;;;;;;16.27;7.93;;;15.80;99.90;;;15.29;100.00;101202.72;5000616;28;20038;-78
2023/06/07 05:59:46;;;;;;;20.73;7.75;;;15.80;99.90;;;15.16;100.00;101211.19;5004476;28;20482;-78
2023/06/07 06:02:11;;;;;;;17.77;8.02;;;15.70;99.90;;;15.22;100.00;101210.25;5002457;28;20129;-78
2023/06/07 06:04:37;;;;;;;15.52;8.77;;;15.70;99.90;;;15.16;100.00;101219.44;4998518;28;20046;-79
2023/06/07 06:07:03;;;;;;;17.25;7.65;;;15.60;99.90;;;15.27;100.00;101210.38;4993944;28;20394;-80
2023/06/07 06:09:30;;;;;;;19.70;8.25;;;15.60;99.90;;;15.00;100.00;101216.25;5019847;28;20049;-79
2023/06/07 06:11:56;;;;;;;16.17;8.40;;;15.50;99.90;;;15.04;100.00;101214.72;5009972;28;20445;-79
2023/06/07 06:14:24;;;;;;;17.58;8.95;;;15.50;99.90;;;15.07;100.00;101218.91;4998692;28;20093;-80
2023/06/07 06:16:51;;;;;;;20.63;8.93;;;15.60;99.90;;;15.02;100.00;101216.03;5004163;28;20030;-80
2023/06/07 06:19:16;;;;;;;20.42;9.02;;;15.50;99.90;;;15.07;100.00;101225.25;5006914;28;20034;-79
2023/06/07 06:21:42;;;;;;;18.23;9.00;;;15.50;99.90;;;15.04;100.00;101228.47;4993903;28;20042;-79
2023/06/07 06:24:08;;;;;;;20.90;9.15;;;15.50;99.90;;;15.02;100.00;101229.78;4994378;28;20039;-79
2023/06/07 06:26:33;;;;;;;19.13;8.45;;;15.60;99.90;;;14.89;100.00;101222.56;4996822;28;20486;-79
2023/06/07 06:28:59;;;;;;;20.63;9.77;;;15.50;99.90;;;15.01;100.00;101222.59;5001058;28;20033;-78
2023/06/07 06:31:26;;;;;;;17.70;9.88;;;15.50;99.90;;;15.38;100.00;101238.97;5008696;28;20402;-80
2023/06/07 06:33:52;;;;;;;20.05;10.18;;;15.70;99.90;;;15.15;100.00;101228.75;4998821;28;20084;-80
2023/06/07 06:36:17;;;;;;;21.98;8.93;;;15.80;99.90;;;15.37;100.00;101237.28;4993835;28;20034;-80
2023/06/07 06:38:43;;;;;;;18.02;9.38;;;15.80;99.90;;;15.26;100.00;101235.38;4998177;28;20046;-79
2023/06/07 06:41:10;;;;;;;24.35;9.85;;;15.80;99.90;;;15.01;100.00;101234.41;5003150;28;20030;-78
2023/06/07 06:43:36;;;;;;;23.42;10.75;;;15.80;99.90;;;15.16;100.00;101238.66;5004747;28;20377;-79
2023/06/07 06:46:01;;;;;;;21.17;10.65;;;15.80;99.90;;;15.29;100.00;101235.72;4996620;28;20501;-79
2023/06/07 06:48:27;;;;;;;20.73;10.55;;;15.80;99.90;;;15.29;100.00;101238.47;4998883;28;20038;-79
2023/06/07 06:50:53;;;;;;;27.98;11.68;;;15.90;99.90;;;15.33;100.00;101236.09;5000144;28;20026;-79
2023/06/07 06:53:19;;;;;;;23.38;11.23;;;15.90;99.90;;;15.52;100.00;101234.97;5021172;28;20057;-79
2023/06/07 06:55:44;;;;;;;23.48;10.63;;;16.10;99.90;;;15.88;100.00;101237.75;5012179;28;20413;-78
2023/06/07 06:58:10;;;;;;;21.33;10.52;;;16.30;99.90;;;16.17;100.00;101243.38;5012753;28;20372;-78
2023/06/07 07:00:38;;;;;;;24.98;10.57;;;16.50;99.90;;;16.06;100.00;101234.09;5012837;28;20041;-79
2023/06/07 07:03:05;;;;;;;19.00;10.90;;;16.50;99.90;;;16.02;100.00;101234.78;5010364;28;20100;-79
2023/06/07 07:05:31;;;;;;;23.92;11.27;;;16.50;99.90;;;15.71;100.00;101231.28;5006631;28;20996;-79
2023/06/07 07:07:57;;;;;;;18.30;11.00;;;16.50;99.90;;;16.22;100.00;101243.53;5011669;28;20038;-78
2023/06/07 07:10:23;;;;;;;22.23;11.48;;;16.50;99.90;;;16.28;100.00;101247.22;5011765;28;20080;-78
2023/06/07 07:12:49;;;;;;;19.77;10.95;;;16.60;99.90;;;15.94;100.00;101242.34;5005166;28;20034;-79
2023/06/07 07:15:15;;;;;;;20.02;11.38;;;16.40;99.90;;;15.29;100.00;101243.97;5010938;28;20045;-78
2023/06/07 07:17:46;;;;;;;23.25;11.60;;;16.00;99.90;;;15.62;100.00;101250.03;5010742;28;20030;-77
2023/06/07 07:20:12;;;;;;;24.33;11.23;;;16.10;99.90;;;15.64;100.00;101245.94;5011117;28;20129;-78
2023/06/07 07:22:38;;;;;;;22.13;11.25;;;16.10;99.90;;;16.01;100.00;101252.38;5009202;28;20029;-79
2023/06/07 07:25:05;;;;;;;22.58;11.77;;;16.30;99.90;;;15.71;100.00;101253.28;5008338;28;20126;-78
2023/06/07 07:27:33;;;;;;;21.55;11.35;;;16.30;99.90;;;15.61;100.00;101260.19;5006564;28;20042;-79
2023/06/07 07:29:59;;;;;;;20.35;11.05;;;16.20;99.90;;;15.75;100.00;101257.22;5008753;28;20104;-79
2023/06/07 07:32:25;;;;;;;23.75;11.15;;;16.30;99.90;;;15.70;100.00;101251.59;5009158;28;20124;-78
2023/06/07 07:34:51;;;;;;;20.73;11.40;;;16.20;99.90;;;15.43;100.00;101254.78;5009292;28;20066;-78
2023/06/07 07:37:17;;;;;;;20.40;10.18;;;16.20;99.90;;;15.50;100.00;101259.06;5012562;28;20038;-77
2023/06/07 07:39:43;;;;;;;23.13;11.73;;;16.10;99.90;;;15.23;100.00;101253.16;4998250;28;20056;-77
2023/06/07 07:42:08;;;;;;;24.45;11.98;;;15.90;99.90;;;15.81;100.00;101267.28;5009691;28;20109;-78
2023/06/07 07:44:35;;;;;;;18.65;11.38;;;16.20;99.90;;;16.31;100.00;101271.53;4999775;28;20509;-79
2023/06/07 07:47:01;;;;;;;26.70;11.00;;;16.60;99.90;;;16.86;100.00;101274.06;4998391;28;20046;-81
2023/06/07 07:49:26;;;;;;;20.92;11.32;;;17.20;99.90;;;16.67;100.00;101271.47;5012031;28;20049;-80
2023/06/07 07:51:52;;;;;;;22.17;10.77;;;17.40;99.90;;;17.31;100.00;101276.09;5007583;28;20045;-78
2023/06/07 07:54:18;;;;;;;17.73;10.55;;;17.80;99.90;;;17.30;100.00;101273.56;5002528;28;20479;-79
2023/06/07 07:56:43;;;;;;;20.92;10.90;;;18.10;99.90;;;17.26;100.00;101270.50;5020717;28;20033;-79
2023/06/07 07:59:10;;;;;;;21.05;10.60;;;18.10;99.90;;;17.38;100.00;101275.97;5000928;28;20026;-79
2023/06/07 08:01:36;;;;;;;16.65;9.73;;;18.20;99.90;;;17.78;100.00;101275.00;5026718;28;20042;-78
2023/06/07 08:04:02;;;;;;;15.98;9.50;;;18.50;99.90;;;17.93;100.00;101281.88;5011999;28;20092;-79
2023/06/07 08:06:28;;;;;;;21.85;10.57;;;18.60;99.90;;;17.44;100.00;101271.34;5004930;28;20677;-78
2023/06/07 08:08:53;;;;;;;17.90;11.48;;;18.40;99.90;;;17.42;100.00;101282.66;5013698;28;20040;-77
2023/06/07 08:11:21;;;;;;;19.23;10.20;;;18.30;99.90;;;17.14;100.00;101277.97;5011339;28;20031;-78
2023/06/07 08:13:47;;;;;;;18.58;10.68;;;18.20;99.90;;;17.21;100.00;101270.38;5007171;28;20238;-77
2023/06/07 08:16:12;;;;;;;18.85;10.95;;;17.90;99.90;;;17.35;100.00;101271.75;4996280;28;20026;-78
2023/06/07 08:18:38;;;;;;;18.85;10.38;;;18.00;99.90;;;17.63;100.00;101267.28;4999453;28;20449;-77
2023/06/07 08:21:04;;;;;;;21.38;10.85;;;18.20;99.90;;;17.69;100.00;101260.75;5003069;28;20034;-77
2023/06/07 08:23:30;;;;;;;20.30;10.88;;;18.40;99.90;;;16.98;100.00;101258.38;5014745;28;20049;-78
2023/06/07 08:25:57;;;;;;;19.67;10.65;;;18.10;99.90;;;17.47;100.00;101255.16;5001951;28;20448;-77
2023/06/07 08:28:24;;;;;;;19.67;10.88;;;18.10;99.90;;;17.72;100.00;101264.09;5001073;28;20227;-77
2023/06/07 08:30:50;;;;;;;22.33;10.45;;;18.30;99.90;;;18.01;100.00;101261.25;5001434;28;20045;-78
2023/06/07 08:33:15;;;;;;;20.52;10.75;;;18.40;99.90;;;18.26;100.00;101260.84;4995530;28;20044;-78
2023/06/07 08:35:41;;;;;;;20.75;11.13;;;18.80;99.90;;;18.07;100.00;101266.66;4998016;28;20042;-77
2023/06/07 08:38:08;;;;;;;18.33;10.82;;;18.80;99.90;;;18.01;100.00;101264.03;4995975;28;20077;-77
2023/06/07 08:40:36;;;;;;;22.48;10.73;;;18.70;99.90;;;17.96;100.00;101254.56;4997221;28;20134;-77
2023/06/07 08:43:02;;;;;;;20.08;10.02;;;18.70;99.90;;;18.39;100.00;101262.41;5010654;28;20033;-77
2023/06/07 08:45:28;;;;;;;22.83;9.98;;;19.00;99.90;;;18.11;100.00;101264.22;5009950;28;20178;-78
2023/06/07 08:47:58;;;;;;;20.52;10.07;;;18.90;99.90;;;17.94;100.00;101266.97;4990852;28;20045;-77
2023/06/07 08:50:25;;;;;;;18.90;10.00;;;18.80;99.90;;;18.24;100.00;101258.34;5004767;28;20398;-77
2023/06/07 08:52:56;;;;;;;16.63;9.63;;;18.90;99.90;;;18.33;100.00;101264.28;4996835;28;20031;-77
2023/06/07 08:55:25;;;;;;;18.83;10.30;;;18.90;99.90;;;18.58;100.00;101262.13;4995312;28;20121;-78
2023/06/07 08:57:52;;;;;;;17.83;10.10;;;19.10;99.90;;;18.76;100.00;101263.75;5003156;28;20029;-78
2023/06/07 09:00:23;;;;;;;16.27;10.05;;;19.20;99.90;;;18.55;100.00;101266.22;5000284;28;20033;-78
2023/06/07 09:02:54;;;;;;;21.33;10.77;;;19.20;99.90;;;18.76;100.00;101270.09;5006958;28;20065;-79
2023/06/07 09:05:23;;;;;;;17.33;10.02;;;19.40;99.90;;;18.99;100.00;101267.38;5004796;28;20034;-77
2023/06/07 09:07:49;;;;;;;16.23;9.65;;;;;;;19.53;98.53;101255.47;5005359;28;20050;-77
2023/06/07 09:10:20;;;;;;;16.13;9.60;;;19.40;99.90;;;19.43;93.55;101264.50;5001232;28;20054;-77
2023/06/07 09:12:48;;;;;;;21.95;11.10;;;20.10;99.90;;;19.21;98.09;101265.38;5000019;28;20387;-78
2023/06/07 09:15:21;;;;;;;24.48;11.40;;;20.00;99.90;;;19.00;99.77;101267.09;5002210;28;20034;-76
2023/06/07 09:17:56;;;;;;;21.52;10.40;;;19.80;99.90;;;19.16;97.44;101270.03;5005492;28;20038;-77
2023/06/07 09:20:27;;;;;;;24.48;10.48;;;19.80;99.90;;;19.29;99.15;101269.63;5005342;28;20030;-77
2023/06/07 09:23:09;;;;;;;18.75;10.00;;;;;;;19.28;97.01;101251.34;5001217;28;20140;-77
2023/06/07 09:25:37;;;;;;;22.10;10.38;;;20.00;99.90;;;19.57;95.65;101264.91;4995593;28;20367;-78
2023/06/07 09:28:08;;;;;;;21.63;10.77;;;20.40;99.90;;;19.51;96.17;101268.72;5011604;28;20115;-78
2023/06/07 09:30:33;;;;;;;19.55;9.85;;;20.40;99.90;;;20.04;90.54;101260.63;5000901;28;20065;-78
2023/06/07 09:32:59;;;;;;;18.25;9.90;;;20.90;99.90;;;20.43;88.40;101265.03;4995333;28;20050;-78
2023/06/07 09:35:25;;;;;;;18.17;9.85;;;21.10;99.90;;;20.07;88.74;101273.09;4999923;28;20087;-79
2023/06/07 09:37:54;;;;;;;20.98;10.73;;;21.00;99.90;;;20.19;88.86;101264.59;5004378;28;20030;-78
2023/06/07 09:40:22;;;;;;;21.70;10.13;;;21.00;99.90;;;20.30;89.29;101259.94;5002210;28;20544;-77
2023/06/07 09:42:58;;;;;;;;;;;21.10;99.90;;;20.18;86.74;101263.78;5001832;28;20035;-78
2023/06/07 09:45:25;;;;;;;18.52;9.73;;;21.20;99.90;;;19.69;90.04;101260.03;4998718;28;20019;-78
2023/06/07 09:48:05;;;;;;;18.42;10.27;;;20.80;99.90;;;20.19;87.25;101268.22;4994507;28;20049;-78
2023/06/07 09:50:31;;;;;;;21.02;10.85;;;21.10;99.90;;;20.13;87.79;101266.47;4997975;28;20081;-79
2023/06/07 09:52:58;;;;;;;17.95;9.50;;;21.20;99.90;;;20.43;86.95;101265.03;4999330;28;20073;-77
2023/06/07 09:55:27;;;;;;;22.33;10.70;;;21.30;99.90;;;20.64;84.70;101262.34;4998945;28;20042;-77
2023/06/07 09:57:53;;;;;;;17.02;9.75;;;21.50;99.90;;;20.25;85.84;101261.59;5006579;28;20677;-77
2023/06/07 10:00:20;;;;;;;17.35;9.40;;;21.50;99.90;;;20.05;88.85;101259.53;5004916;28;20064;-78
2023/06/07 10:02:46;;;;;;;23.00;10.13;;;21.00;99.90;;;19.69;91.38;101267.50;4995573;28;20057;-77
2023/06/07 10:05:14;;;;;;;17.42;9.18;;;20.70;99.90;;;20.33;87.56;101264.94;4992653;28;20046;-76